This is the latest recevied weather packets stored in our database for station/object KI4HRG. If no packets are shown the sender has not sent any weather packets the latest 10 day(s).
| Time | Temp. | Humidity | Pressure | Rain* | Wind** | Luminosity | Snow |
|---|---|---|---|---|---|---|---|
| 1787856310 | 29.44° C | 72% | 1015.3 hPa | 0 mm | - | 291 W/m² | - |
| 1787856006 | 30° C | 71% | 1015.4 hPa | 0 mm | - | 275 W/m² | - |
| 1787855705 | 29.44° C | 72% | 1015.1 hPa | 0 mm | - | 271 W/m² | - |
| 1787855401 | 30° C | 71% | 1015.2 hPa | 0 mm | - | 259 W/m² | - |
| 1787855096 | 30° C | 71% | 1015.4 hPa | 0 mm | - | 301 W/m² | - |
| 1787854791 | 30° C | 72% | 1015.4 hPa | 0 mm | - | 342 W/m² | - |
| 1787854490 | 30° C | 72% | 1015.4 hPa | 0 mm | - | 360 W/m² | - |
| 1787854185 | 30° C | 72% | 1015.6 hPa | 0 mm | - | 352 W/m² | - |
| 1787853881 | 29.44° C | 73% | 1015.5 hPa | 0 mm | - | 355 W/m² | - |
| 1787853579 | 30° C | 73% | 1015.6 hPa | 0 mm | - | 377 W/m² | - |
| 1787853278 | 30° C | 74% | 1015.5 hPa | 0 mm | - | 436 W/m² | - |
| 1787852973 | 29.44° C | 74% | 1015.6 hPa | 0 mm | - | 370 W/m² | - |
| 1787852668 | 29.44° C | 73% | 1015.4 hPa | 0 mm | - | 356 W/m² | - |
| 1787852367 | 30° C | 72% | 1015.5 hPa | 0 mm | - | 632 W/m² | - |
| 1787852061 | 28.89° C | 76% | 1015.7 hPa | 0 mm | - | 599 W/m² | - |
| 1787851761 | 29.44° C | 74% | 1015.4 hPa | 0 mm | - | 665 W/m² | - |
| 1787851455 | 28.89° C | 75% | 1015.5 hPa | 0 mm | - | 666 W/m² | - |
| 1787851150 | 29.44° C | 74% | 1015.5 hPa | 0 mm | - | 648 W/m² | - |
| 1787850846 | 29.44° C | 73% | 1015.4 hPa | 0 mm | - | 757 W/m² | - |
| 1787850542 | 28.89° C | 76% | 1015.5 hPa | 0 mm | - | 389 W/m² | - |
| 1787850236 | 28.33° C | 78% | 1015.7 hPa | 0 mm | - | 845 W/m² | - |
| 1787849931 | 28.33° C | 77% | 1015.8 hPa | 0 mm | - | 575 W/m² | - |
| 1787849626 | 28.33° C | 79% | 1015.7 hPa | 0 mm | - | 733 W/m² | - |
| 1787849324 | 27.78° C | 79% | 1016 hPa | 0 mm | - | 705 W/m² | - |
| 1787849019 | 27.78° C | 81% | 1015.9 hPa | 0 mm | - | 606 W/m² | - |
* Rain latest hour (hover to see other rain measurements)
** Current wind speed in m/s (hover to see current wind gust speed)